sensor_id;sensor_type;location;lat;lon;timestamp;pressure;altitude;pressure_sealevel;temperature;humidity
57572;BME280;44459;43.522;24.470;2023-04-24T00:02:06;99934.38;;;9.85;100.00
57572;BME280;44459;43.522;24.470;2023-04-24T00:04:34;99921.16;;;9.87;100.00
57572;BME280;44459;43.522;24.470;2023-04-24T00:07:00;99933.50;;;9.94;100.00
57572;BME280;44459;43.522;24.470;2023-04-24T00:09:26;99937.00;;;9.93;100.00
57572;BME280;44459;43.522;24.470;2023-04-24T00:11:52;99935.31;;;10.05;100.00
57572;BME280;44459;43.522;24.470;2023-04-24T00:14:17;99943.28;;;10.15;100.00
57572;BME280;44459;43.522;24.470;2023-04-24T00:16:43;99923.00;;;10.09;100.00
57572;BME280;44459;43.522;24.470;2023-04-24T00:19:08;99936.25;;;10.18;100.00
57572;BME280;44459;43.522;24.470;2023-04-24T00:21:34;99915.16;;;10.17;100.00
57572;BME280;44459;43.522;24.470;2023-04-24T00:24:00;99909.88;;;10.18;100.00
57572;BME280;44459;43.522;24.470;2023-04-24T00:26:25;99885.25;;;10.18;100.00
57572;BME280;44459;43.522;24.470;2023-04-24T00:28:51;99858.00;;;10.19;100.00
57572;BME280;44459;43.522;24.470;2023-04-24T00:31:16;99843.03;;;10.15;100.00
57572;BME280;44459;43.522;24.470;2023-04-24T00:33:41;99852.72;;;10.17;100.00
57572;BME280;44459;43.522;24.470;2023-04-24T00:36:07;99856.22;;;10.21;100.00
57572;BME280;44459;43.522;24.470;2023-04-24T00:38:32;99851.88;;;10.20;100.00
57572;BME280;44459;43.522;24.470;2023-04-24T00:40:58;99849.22;;;10.15;100.00
57572;BME280;44459;43.522;24.470;2023-04-24T00:43:23;99850.94;;;10.11;100.00
57572;BME280;44459;43.522;24.470;2023-04-24T00:45:49;99879.88;;;9.93;100.00
57572;BME280;44459;43.522;24.470;2023-04-24T00:48:16;99871.97;;;9.96;100.00
57572;BME280;44459;43.522;24.470;2023-04-24T00:50:42;99868.41;;;9.79;100.00
57572;BME280;44459;43.522;24.470;2023-04-24T00:53:07;99866.69;;;9.87;100.00
57572;BME280;44459;43.522;24.470;2023-04-24T00:55:32;99855.28;;;9.88;100.00
57572;BME280;44459;43.522;24.470;2023-04-24T00:57:58;99871.94;;;9.80;100.00
57572;BME280;44459;43.522;24.470;2023-04-24T01:00:25;99865.81;;;9.84;100.00
57572;BME280;44459;43.522;24.470;2023-04-24T01:02:51;99861.41;;;9.83;100.00
57572;BME280;44459;43.522;24.470;2023-04-24T01:05:18;99857.00;;;9.80;100.00
57572;BME280;44459;43.522;24.470;2023-04-24T01:07:45;99859.63;;;9.76;100.00
57572;BME280;44459;43.522;24.470;2023-04-24T01:10:13;99856.09;;;9.71;100.00
57572;BME280;44459;43.522;24.470;2023-04-24T01:12:39;99858.72;;;9.66;100.00
57572;BME280;44459;43.522;24.470;2023-04-24T01:15:05;99864.84;;;9.65;100.00
57572;BME280;44459;43.522;24.470;2023-04-24T01:17:32;99849.03;;;9.59;100.00
57572;BME280;44459;43.522;24.470;2023-04-24T01:19:58;99852.50;;;9.52;100.00
57572;BME280;44459;43.522;24.470;2023-04-24T01:22:25;99851.63;;;9.47;100.00
57572;BME280;44459;43.522;24.470;2023-04-24T01:24:52;99850.72;;;9.43;100.00
57572;BME280;44459;43.522;24.470;2023-04-24T01:27:19;99853.34;;;9.39;100.00
57572;BME280;44459;43.522;24.470;2023-04-24T01:29:45;99837.44;;;9.16;100.00
57572;BME280;44459;43.522;24.470;2023-04-24T01:32:10;99855.88;;;9.16;100.00
57572;BME280;44459;43.522;24.470;2023-04-24T01:34:37;99861.88;;;8.97;100.00
57572;BME280;44459;43.522;24.470;2023-04-24T01:37:02;99867.16;;;8.98;100.00
57572;BME280;44459;43.522;24.470;2023-04-24T01:39:28;99860.13;;;8.99;100.00
57572;BME280;44459;43.522;24.470;2023-04-24T01:41:55;99849.50;;;8.85;100.00
57572;BME280;44459;43.522;24.470;2023-04-24T01:44:20;99849.47;;;8.82;100.00
57572;BME280;44459;43.522;24.470;2023-04-24T01:46:46;99853.88;;;8.83;100.00
57572;BME280;44459;43.522;24.470;2023-04-24T01:49:12;99857.41;;;8.87;100.00
57572;BME280;44459;43.522;24.470;2023-04-24T01:51:37;99856.56;;;8.89;100.00
57572;BME280;44459;43.522;24.470;2023-04-24T01:54:03;99852.19;;;8.93;100.00
57572;BME280;44459;43.522;24.470;2023-04-24T01:56:33;99851.31;;;8.92;100.00
57572;BME280;44459;43.522;24.470;2023-04-24T01:59:02;99847.78;;;8.90;100.00
57572;BME280;44459;43.522;24.470;2023-04-24T02:01:33;99844.31;;;8.94;100.00
57572;BME280;44459;43.522;24.470;2023-04-24T02:04:00;99839.91;;;8.93;100.00
57572;BME280;44459;43.522;24.470;2023-04-24T02:06:25;99838.19;;;8.97;100.00
57572;BME280;44459;43.522;24.470;2023-04-24T02:08:51;99840.88;;;9.04;100.00
57572;BME280;44459;43.522;24.470;2023-04-24T02:11:16;99844.38;;;9.05;100.00
57572;BME280;44459;43.522;24.470;2023-04-24T02:13:42;99844.34;;;9.03;100.00
57572;BME280;44459;43.522;24.470;2023-04-24T02:16:07;99843.50;;;9.06;100.00
57572;BME280;44459;43.522;24.470;2023-04-24T02:18:32;99835.63;;;9.07;100.00
57572;BME280;44459;43.522;24.470;2023-04-24T02:20:58;99837.34;;;9.04;100.00
57572;BME280;44459;43.522;24.470;2023-04-24T02:23:23;99838.22;;;9.01;100.00
57572;BME280;44459;43.522;24.470;2023-04-24T02:25:49;99838.19;;;8.95;100.00
57572;BME280;44459;43.522;24.470;2023-04-24T02:28:14;99839.09;;;9.02;100.00
57572;BME280;44459;43.522;24.470;2023-04-24T02:30:40;99849.59;;;8.94;100.00
57572;BME280;44459;43.522;24.470;2023-04-24T02:33:05;99869.75;;;8.91;100.00
57572;BME280;44459;43.522;24.470;2023-04-24T02:35:30;99876.66;;;8.80;100.00
57572;BME280;44459;43.522;24.470;2023-04-24T02:37:56;99867.94;;;8.84;100.00
57572;BME280;44459;43.522;24.470;2023-04-24T02:40:21;99872.28;;;8.80;100.00
57572;BME280;44459;43.522;24.470;2023-04-24T02:42:46;99882.84;;;8.86;100.00
57572;BME280;44459;43.522;24.470;2023-04-24T02:45:12;99878.50;;;8.93;100.00
57572;BME280;44459;43.522;24.470;2023-04-24T02:47:37;99875.94;;;9.00;100.00
57572;BME280;44459;43.522;24.470;2023-04-24T02:50:03;99872.44;;;9.06;100.00
57572;BME280;44459;43.522;24.470;2023-04-24T02:52:29;99870.69;;;9.06;100.00
57572;BME280;44459;43.522;24.470;2023-04-24T02:54:54;99883.84;;;9.02;100.00
57572;BME280;44459;43.522;24.470;2023-04-24T02:57:20;99863.72;;;9.13;100.00
57572;BME280;44459;43.522;24.470;2023-04-24T02:59:45;99862.03;;;9.21;100.00
57572;BME280;44459;43.522;24.470;2023-04-24T03:02:11;99849.78;;;9.26;100.00
57572;BME280;44459;43.522;24.470;2023-04-24T03:04:36;99858.59;;;9.33;100.00
57572;BME280;44459;43.522;24.470;2023-04-24T03:07:02;99862.06;;;9.32;100.00
57572;BME280;44459;43.522;24.470;2023-04-24T03:09:27;99854.19;;;9.33;100.00
57572;BME280;44459;43.522;24.470;2023-04-24T03:11:53;99862.91;;;9.22;100.00
57572;BME280;44459;43.522;24.470;2023-04-24T03:14:18;99856.75;;;9.20;100.00
57572;BME280;44459;43.522;24.470;2023-04-24T03:16:43;99857.59;;;9.17;100.00
57572;BME280;44459;43.522;24.470;2023-04-24T03:19:09;99860.25;;;9.19;100.00
57572;BME280;44459;43.522;24.470;2023-04-24T03:21:35;99864.66;;;9.21;100.00
57572;BME280;44459;43.522;24.470;2023-04-24T03:24:01;99869.06;;;9.22;100.00
57572;BME280;44459;43.522;24.470;2023-04-24T03:26:26;99871.66;;;9.16;100.00
57572;BME280;44459;43.522;24.470;2023-04-24T03:28:51;99872.56;;;9.20;100.00
57572;BME280;44459;43.522;24.470;2023-04-24T03:31:17;99871.69;;;9.25;100.00
57572;BME280;44459;43.522;24.470;2023-04-24T03:33:42;99869.91;;;9.18;100.00
57572;BME280;44459;43.522;24.470;2023-04-24T03:36:07;99873.41;;;9.20;100.00
57572;BME280;44459;43.522;24.470;2023-04-24T03:38:33;99873.47;;;9.28;100.00
57572;BME280;44459;43.522;24.470;2023-04-24T03:40:58;99867.38;;;9.33;100.00
57572;BME280;44459;43.522;24.470;2023-04-24T03:43:24;99871.75;;;9.36;100.00
57572;BME280;44459;43.522;24.470;2023-04-24T03:45:49;99875.28;;;9.41;100.00
57572;BME280;44459;43.522;24.470;2023-04-24T03:48:15;99878.81;;;9.41;100.00
57572;BME280;44459;43.522;24.470;2023-04-24T03:50:41;99873.59;;;9.50;100.00
57572;BME280;44459;43.522;24.470;2023-04-24T03:53:07;99872.72;;;9.54;100.00
57572;BME280;44459;43.522;24.470;2023-04-24T03:55:33;99880.66;;;9.60;100.00
57572;BME280;44459;43.522;24.470;2023-04-24T03:57:58;99864.88;;;9.70;100.00
57572;BME280;44459;43.522;24.470;2023-04-24T04:00:24;99866.66;;;9.74;100.00
57572;BME280;44459;43.522;24.470;2023-04-24T04:02:49;99872.84;;;9.89;100.00
57572;BME280;44459;43.522;24.470;2023-04-24T04:05:15;99886.94;;;10.00;100.00
57572;BME280;44459;43.522;24.470;2023-04-24T04:07:40;99876.44;;;10.09;100.00
57572;BME280;44459;43.522;24.470;2023-04-24T04:10:06;99884.38;;;10.25;100.00
57572;BME280;44459;43.522;24.470;2023-04-24T04:12:32;99882.66;;;10.36;100.00
57572;BME280;44459;43.522;24.470;2023-04-24T04:14:58;99880.91;;;10.41;100.00
57572;BME280;44459;43.522;24.470;2023-04-24T04:17:23;99882.66;;;10.45;100.00
57572;BME280;44459;43.522;24.470;2023-04-24T04:19:49;99879.16;;;10.47;100.00
57572;BME280;44459;43.522;24.470;2023-04-24T04:22:14;99875.63;;;10.51;100.00
57572;BME280;44459;43.522;24.470;2023-04-24T04:24:39;99865.94;;;10.56;100.00
57572;BME280;44459;43.522;24.470;2023-04-24T04:27:06;99876.50;;;10.64;100.00
57572;BME280;44459;43.522;24.470;2023-04-24T04:29:32;99881.78;;;10.70;100.00
57572;BME280;44459;43.522;24.470;2023-04-24T04:31:58;99888.84;;;10.76;100.00
57572;BME280;44459;43.522;24.470;2023-04-24T04:34:23;99890.59;;;10.78;100.00
57572;BME280;44459;43.522;24.470;2023-04-24T04:36:49;99903.78;;;10.84;100.00
57572;BME280;44459;43.522;24.470;2023-04-24T04:39:15;99911.69;;;10.87;100.00
57572;BME280;44459;43.522;24.470;2023-04-24T04:41:41;99915.25;;;10.86;99.88
57572;BME280;44459;43.522;24.470;2023-04-24T04:44:07;99910.81;;;10.84;98.51
57572;BME280;44459;43.522;24.470;2023-04-24T04:46:34;99923.16;;;10.82;99.84
57572;BME280;44459;43.522;24.470;2023-04-24T04:49:02;99921.41;;;10.82;99.25
57572;BME280;44459;43.522;24.470;2023-04-24T04:51:28;99918.75;;;10.81;100.00
57572;BME280;44459;43.522;24.470;2023-04-24T04:53:54;99916.09;;;10.88;100.00
57572;BME280;44459;43.522;24.470;2023-04-24T04:56:19;99928.44;;;10.89;100.00
57572;BME280;44459;43.522;24.470;2023-04-24T04:58:45;99916.09;;;10.88;100.00
57572;BME280;44459;43.522;24.470;2023-04-24T05:01:13;99920.50;;;10.92;100.00
57572;BME280;44459;43.522;24.470;2023-04-24T05:03:39;99919.63;;;10.89;100.00
57572;BME280;44459;43.522;24.470;2023-04-24T05:06:04;99916.13;;;10.85;100.00
57572;BME280;44459;43.522;24.470;2023-04-24T05:08:30;99907.31;;;10.92;100.00
57572;BME280;44459;43.522;24.470;2023-04-24T05:10:55;99901.13;;;10.98;100.00
57572;BME280;44459;43.522;24.470;2023-04-24T05:13:21;99893.22;;;11.02;100.00
57572;BME280;44459;43.522;24.470;2023-04-24T05:15:46;99900.22;;;11.11;100.00
57572;BME280;44459;43.522;24.470;2023-04-24T05:18:12;99896.72;;;11.12;100.00
57572;BME280;44459;43.522;24.470;2023-04-24T05:20:37;99880.84;;;11.26;100.00
57572;BME280;44459;43.522;24.470;2023-04-24T05:23:03;99879.91;;;11.45;100.00
57572;BME280;44459;43.522;24.470;2023-04-24T05:25:28;99874.50;;;11.78;100.00
57572;BME280;44459;43.522;24.470;2023-04-24T05:27:53;99871.75;;;12.01;100.00
57572;BME280;44459;43.522;24.470;2023-04-24T05:30:19;99883.09;;;12.24;100.00
57572;BME280;44459;43.522;24.470;2023-04-24T05:32:45;99872.31;;;12.51;100.00
57572;BME280;44459;43.522;24.470;2023-04-24T05:35:11;99872.94;;;12.81;99.77
57572;BME280;44459;43.522;24.470;2023-04-24T05:37:36;99876.22;;;13.12;97.28
57572;BME280;44459;43.522;24.470;2023-04-24T05:40:02;99868.88;;;13.39;93.94
57572;BME280;44459;43.522;24.470;2023-04-24T05:42:29;99864.16;;;13.63;91.36
57572;BME280;44459;43.522;24.470;2023-04-24T05:44:55;99866.63;;;13.76;90.65
57572;BME280;44459;43.522;24.470;2023-04-24T05:47:21;99877.97;;;13.89;87.85
57572;BME280;44459;43.522;24.470;2023-04-24T05:49:47;99870.63;;;14.07;88.41
57572;BME280;44459;43.522;24.470;2023-04-24T05:52:12;99865.91;;;14.29;85.46
57572;BME280;44459;43.522;24.470;2023-04-24T05:54:38;99865.69;;;14.46;86.54
57572;BME280;44459;43.522;24.470;2023-04-24T05:57:04;99868.78;;;14.72;85.22
57572;BME280;44459;43.522;24.470;2023-04-24T05:59:41;99870.94;;;15.02;84.29
57572;BME280;44459;43.522;24.470;2023-04-24T06:02:07;99872.41;;;15.19;82.55
57572;BME280;44459;43.522;24.470;2023-04-24T06:04:32;99868.03;;;15.15;82.62
57572;BME280;44459;43.522;24.470;2023-04-24T06:06:58;99875.19;;;15.11;81.86
57572;BME280;44459;43.522;24.470;2023-04-24T06:09:24;99879.75;;;15.04;82.17
57572;BME280;44459;43.522;24.470;2023-04-24T06:11:50;99884.06;;;15.11;83.70
57572;BME280;44459;43.522;24.470;2023-04-24T06:14:19;99880.19;;;15.28;83.26
57572;BME280;44459;43.522;24.470;2023-04-24T06:16:45;99875.75;;;15.30;82.32
57572;BME280;44459;43.522;24.470;2023-04-24T06:19:10;99872.09;;;15.35;82.01
57572;BME280;44459;43.522;24.470;2023-04-24T06:21:36;99875.44;;;15.45;82.69
57572;BME280;44459;43.522;24.470;2023-04-24T06:24:01;99865.41;;;15.60;80.16
57572;BME280;44459;43.522;24.470;2023-04-24T06:26:27;99866.91;;;15.74;79.47
57572;BME280;44459;43.522;24.470;2023-04-24T06:28:53;99861.06;;;15.98;80.44
57572;BME280;44459;43.522;24.470;2023-04-24T06:31:21;99860.84;;;16.07;77.76
57572;BME280;44459;43.522;24.470;2023-04-24T06:33:48;99868.91;;;16.05;76.93
57572;BME280;44459;43.522;24.470;2023-04-24T06:36:13;99863.31;;;16.16;76.67
57572;BME280;44459;43.522;24.470;2023-04-24T06:38:38;99869.69;;;16.47;81.16
57572;BME280;44459;43.522;24.470;2023-04-24T06:41:04;99870.69;;;16.80;76.27
57572;BME280;44459;43.522;24.470;2023-04-24T06:43:33;99867.66;;;16.95;76.95
57572;BME280;44459;43.522;24.470;2023-04-24T06:45:59;99870.72;;;17.14;75.95
57572;BME280;44459;43.522;24.470;2023-04-24T06:48:25;99858.50;;;17.38;73.62
57572;BME280;44459;43.522;24.470;2023-04-24T06:50:51;99860.78;;;17.51;75.85
57572;BME280;44459;43.522;24.470;2023-04-24T06:53:17;99865.38;;;17.46;73.83
57572;BME280;44459;43.522;24.470;2023-04-24T06:55:43;99863.66;;;17.45;76.36
57572;BME280;44459;43.522;24.470;2023-04-24T06:58:10;99878.56;;;17.52;74.99
57572;BME280;44459;43.522;24.470;2023-04-24T07:00:36;99869.59;;;17.55;73.04
57572;BME280;44459;43.522;24.470;2023-04-24T07:03:01;99878.84;;;17.74;74.18
57572;BME280;44459;43.522;24.470;2023-04-24T07:05:27;99869.16;;;17.70;72.35
57572;BME280;44459;43.522;24.470;2023-04-24T07:07:53;99885.84;;;17.46;72.74
57572;BME280;44459;43.522;24.470;2023-04-24T07:10:18;99886.88;;;17.42;72.23
57572;BME280;44459;43.522;24.470;2023-04-24T07:12:45;99884.22;;;17.40;72.90
57572;BME280;44459;43.522;24.470;2023-04-24T07:15:11;99882.72;;;17.32;74.34
57572;BME280;44459;43.522;24.470;2023-04-24T07:17:37;99869.94;;;17.10;72.14
57572;BME280;44459;43.522;24.470;2023-04-24T07:20:04;99878.28;;;17.31;72.81
57572;BME280;44459;43.522;24.470;2023-04-24T07:22:30;99875.00;;;17.20;75.28
57572;BME280;44459;43.522;24.470;2023-04-24T07:24:56;99863.59;;;17.15;76.56
57572;BME280;44459;43.522;24.470;2023-04-24T07:27:21;99888.97;;;17.29;76.00
57572;BME280;44459;43.522;24.470;2023-04-24T07:29:46;99891.06;;;17.50;77.39
57572;BME280;44459;43.522;24.470;2023-04-24T07:32:12;99885.13;;;17.07;75.96
57572;BME280;44459;43.522;24.470;2023-04-24T07:34:37;99888.53;;;17.12;77.79
57572;BME280;44459;43.522;24.470;2023-04-24T07:37:03;99904.25;;;16.89;78.12
57572;BME280;44459;43.522;24.470;2023-04-24T07:39:28;99891.13;;;16.81;79.22
57572;BME280;44459;43.522;24.470;2023-04-24T07:41:54;99895.28;;;16.56;80.31
57572;BME280;44459;43.522;24.470;2023-04-24T07:44:19;99892.34;;;16.67;79.61
57572;BME280;44459;43.522;24.470;2023-04-24T07:46:45;99896.53;;;16.40;79.78
57572;BME280;44459;43.522;24.470;2023-04-24T07:49:10;99901.34;;;16.63;79.86
57572;BME280;44459;43.522;24.470;2023-04-24T07:51:36;99903.72;;;15.96;83.18
57572;BME280;44459;43.522;24.470;2023-04-24T07:54:04;99904.34;;;16.07;80.50
57572;BME280;44459;43.522;24.470;2023-04-24T07:56:31;99895.59;;;16.02;81.19
57572;BME280;44459;43.522;24.470;2023-04-24T07:58:57;99891.31;;;15.94;80.40
57572;BME280;44459;43.522;24.470;2023-04-24T08:01:22;99901.50;;;16.15;81.87
57572;BME280;44459;43.522;24.470;2023-04-24T08:03:47;99897.38;;;16.00;78.65
57572;BME280;44459;43.522;24.470;2023-04-24T08:06:13;99900.97;;;15.99;78.55
57572;BME280;44459;43.522;24.470;2023-04-24T08:08:38;99895.94;;;15.86;79.74
57572;BME280;44459;43.522;24.470;2023-04-24T08:11:04;99903.59;;;16.01;80.41
57572;BME280;44459;43.522;24.470;2023-04-24T08:13:29;99904.25;;;16.12;79.25
57572;BME280;44459;43.522;24.470;2023-04-24T08:15:56;99900.53;;;15.78;79.48
57572;BME280;44459;43.522;24.470;2023-04-24T08:18:22;99901.50;;;15.75;80.46
57572;BME280;44459;43.522;24.470;2023-04-24T08:20:47;99897.34;;;15.60;80.48
57572;BME280;44459;43.522;24.470;2023-04-24T08:23:13;99902.09;;;15.42;81.49
57572;BME280;44459;43.522;24.470;2023-04-24T08:25:38;99906.41;;;15.50;82.66
57572;BME280;44459;43.522;24.470;2023-04-24T08:28:05;99894.91;;;15.47;82.02
57572;BME280;44459;43.522;24.470;2023-04-24T08:30:31;99901.72;;;15.63;81.14
57572;BME280;44459;43.522;24.470;2023-04-24T08:32:57;99896.38;;;15.65;80.82
57572;BME280;44459;43.522;24.470;2023-04-24T08:35:22;99895.50;;;15.64;80.69
57572;BME280;44459;43.522;24.470;2023-04-24T08:37:48;99889.97;;;15.75;80.84
57572;BME280;44459;43.522;24.470;2023-04-24T08:40:15;99886.13;;;15.88;80.38
57572;BME280;44459;43.522;24.470;2023-04-24T08:42:42;99892.13;;;15.97;79.20
57572;BME280;44459;43.522;24.470;2023-04-24T08:45:10;99885.97;;;15.95;79.25
57572;BME280;44459;43.522;24.470;2023-04-24T08:47:37;99886.69;;;16.03;79.61
57572;BME280;44459;43.522;24.470;2023-04-24T08:50:03;99880.22;;;16.15;78.36
57572;BME280;44459;43.522;24.470;2023-04-24T08:52:32;99878.03;;;16.32;79.54
57572;BME280;44459;43.522;24.470;2023-04-24T08:54:59;99878.44;;;16.54;77.91
57572;BME280;44459;43.522;24.470;2023-04-24T08:57:25;99881.78;;;16.64;77.48
57572;BME280;44459;43.522;24.470;2023-04-24T08:59:52;99868.59;;;16.59;78.06
57572;BME280;44459;43.522;24.470;2023-04-24T09:02:18;99864.50;;;16.80;75.47
57572;BME280;44459;43.522;24.470;2023-04-24T09:04:45;99857.75;;;17.00;77.98
57572;BME280;44459;43.522;24.470;2023-04-24T09:07:12;99858.84;;;16.92;75.65
57572;BME280;44459;43.522;24.470;2023-04-24T09:09:40;99864.72;;;17.06;75.41
57572;BME280;44459;43.522;24.470;2023-04-24T09:12:07;99861.03;;;17.10;71.98
57572;BME280;44459;43.522;24.470;2023-04-24T09:14:34;99863.28;;;17.25;71.60
57572;BME280;44459;43.522;24.470;2023-04-24T09:17:01;99851.09;;;17.49;74.58
57572;BME280;44459;43.522;24.470;2023-04-24T09:19:27;99851.28;;;17.74;75.69
57572;BME280;44459;43.522;24.470;2023-04-24T09:21:53;99848.81;;;17.97;72.40
57572;BME280;44459;43.522;24.470;2023-04-24T09:24:20;99852.41;;;18.25;67.41
57572;BME280;44459;43.522;24.470;2023-04-24T09:26:48;99847.31;;;18.44;69.31
57572;BME280;44459;43.522;24.470;2023-04-24T09:29:17;99841.66;;;18.54;68.33
57572;BME280;44459;43.522;24.470;2023-04-24T09:31:43;99849.25;;;18.68;66.76
57572;BME280;44459;43.522;24.470;2023-04-24T09:34:09;99844.63;;;18.73;64.44
57572;BME280;44459;43.522;24.470;2023-04-24T09:36:36;99842.56;;;18.55;63.27
57572;BME280;44459;43.522;24.470;2023-04-24T09:39:08;99835.16;;;18.63;63.81
57572;BME280;44459;43.522;24.470;2023-04-24T09:41:44;99825.28;;;18.91;62.18
57572;BME280;44459;43.522;24.470;2023-04-24T09:44:16;99827.81;;;19.21;65.11
57572;BME280;44459;43.522;24.470;2023-04-24T09:46:44;99829.53;;;19.48;62.23
57572;BME280;44459;43.522;24.470;2023-04-24T09:49:13;99823.53;;;19.65;61.98
57572;BME280;44459;43.522;24.470;2023-04-24T09:51:38;99832.16;;;19.73;60.61
57572;BME280;44459;43.522;24.470;2023-04-24T09:54:05;99823.91;;;19.79;58.70
57572;BME280;44459;43.522;24.470;2023-04-24T09:56:36;99820.94;;;19.63;58.55
57572;BME280;44459;43.522;24.470;2023-04-24T09:59:07;99811.84;;;19.90;62.05
57572;BME280;44459;43.522;24.470;2023-04-24T10:01:33;99812.97;;;20.06;60.28
57572;BME280;44459;43.522;24.470;2023-04-24T10:03:59;99813.09;;;20.27;60.38
57572;BME280;44459;43.522;24.470;2023-04-24T10:06:34;99809.19;;;20.57;58.87
57572;BME280;44459;43.522;24.470;2023-04-24T10:09:01;99797.59;;;20.56;55.83
57572;BME280;44459;43.522;24.470;2023-04-24T10:11:27;99793.41;;;20.71;58.29
57572;BME280;44459;43.522;24.470;2023-04-24T10:13:53;99784.81;;;21.03;56.57
57572;BME280;44459;43.522;24.470;2023-04-24T10:16:22;99785.84;;;21.21;54.95
57572;BME280;44459;43.522;24.470;2023-04-24T10:18:48;99784.84;;;21.44;55.38
57572;BME280;44459;43.522;24.470;2023-04-24T10:21:14;99782.41;;;21.58;50.89
57572;BME280;44459;43.522;24.470;2023-04-24T10:23:41;99778.09;;;21.54;53.01
57572;BME280;44459;43.522;24.470;2023-04-24T10:26:09;99775.56;;;21.51;53.04
57572;BME280;44459;43.522;24.470;2023-04-24T10:28:36;99772.09;;;21.68;54.85
57572;BME280;44459;43.522;24.470;2023-04-24T10:31:02;99777.41;;;21.88;53.73
57572;BME280;44459;43.522;24.470;2023-04-24T10:33:29;99771.28;;;21.84;50.24
57572;BME280;44459;43.522;24.470;2023-04-24T10:35:56;99770.81;;;21.76;49.27
57572;BME280;44459;43.522;24.470;2023-04-24T10:38:25;99771.03;;;21.90;51.84
57572;BME280;44459;43.522;24.470;2023-04-24T10:40:58;99772.78;;;22.10;50.91
57572;BME280;44459;43.522;24.470;2023-04-24T10:43:33;99771.69;;;22.14;48.50
57572;BME280;44459;43.522;24.470;2023-04-24T10:46:03;99773.94;;;22.04;51.25
57572;BME280;44459;43.522;24.470;2023-04-24T10:48:29;99776.13;;;21.96;50.40
57572;BME280;44459;43.522;24.470;2023-04-24T10:50:55;99769.22;;;22.10;54.16
57572;BME280;44459;43.522;24.470;2023-04-24T10:53:28;99764.66;;;22.29;52.85
57572;BME280;44459;43.522;24.470;2023-04-24T10:55:58;99771.84;;;22.47;55.34
57572;BME280;44459;43.522;24.470;2023-04-24T10:58:24;99762.28;;;22.58;52.03
57572;BME280;44459;43.522;24.470;2023-04-24T11:01:00;99756.53;;;22.66;51.22
57572;BME280;44459;43.522;24.470;2023-04-24T11:03:26;99762.41;;;22.74;48.70
57572;BME280;44459;43.522;24.470;2023-04-24T11:06:05;99754.66;;;22.85;48.08
57572;BME280;44459;43.522;24.470;2023-04-24T11:08:36;99754.66;;;22.68;48.97
57572;BME280;44459;43.522;24.470;2023-04-24T11:11:08;99750.88;;;22.72;50.22
57572;BME280;44459;43.522;24.470;2023-04-24T11:16:34;99752.78;;;22.51;48.78
57572;BME280;44459;43.522;24.470;2023-04-24T11:24:31;99742.00;;;22.34;47.90
57572;BME280;44459;43.522;24.470;2023-04-24T11:29:41;99735.50;;;22.02;48.82
57572;BME280;44459;43.522;24.470;2023-04-24T11:35:15;99731.53;;;21.92;47.63
57572;BME280;44459;43.522;24.470;2023-04-24T11:37:40;99717.84;;;21.78;47.82
57572;BME280;44459;43.522;24.470;2023-04-24T11:40:08;99717.91;;;21.77;48.52
57572;BME280;44459;43.522;24.470;2023-04-24T11:42:35;99724.91;;;21.62;48.58
57572;BME280;44459;43.522;24.470;2023-04-24T11:45:01;99713.50;;;21.76;49.37
57572;BME280;44459;43.522;24.470;2023-04-24T11:47:31;99715.41;;;21.92;47.75
57572;BME280;44459;43.522;24.470;2023-04-24T11:49:59;99718.72;;;21.97;47.06
57572;BME280;44459;43.522;24.470;2023-04-24T11:52:25;99707.03;;;21.98;48.69
57572;BME280;44459;43.522;24.470;2023-04-24T11:54:51;99707.91;;;21.62;49.20
57572;BME280;44459;43.522;24.470;2023-04-24T11:57:19;99700.56;;;21.65;47.86
57572;BME280;44459;43.522;24.470;2023-04-24T11:59:45;99705.44;;;21.94;49.24
57572;BME280;44459;43.522;24.470;2023-04-24T12:02:23;99700.72;;;21.99;45.35
57572;BME280;44459;43.522;24.470;2023-04-24T12:04:48;99696.13;;;22.01;48.67
57572;BME280;44459;43.522;24.470;2023-04-24T12:07:14;99692.16;;;21.91;45.63
57572;BME280;44459;43.522;24.470;2023-04-24T12:09:47;99686.53;;;21.77;47.60
57572;BME280;44459;43.522;24.470;2023-04-24T12:12:15;99687.81;;;21.87;48.11
57572;BME280;44459;43.522;24.470;2023-04-24T12:14:48;99685.06;;;22.07;46.17
57572;BME280;44459;43.522;24.470;2023-04-24T12:17:15;99679.47;;;22.12;46.84
57572;BME280;44459;43.522;24.470;2023-04-24T12:19:46;99677.19;;;22.22;48.05
57572;BME280;44459;43.522;24.470;2023-04-24T12:22:12;99679.25;;;22.17;47.20
57572;BME280;44459;43.522;24.470;2023-04-24T12:24:58;99670.69;;;22.08;47.57
57572;BME280;44459;43.522;24.470;2023-04-24T12:27:25;99666.03;;;22.29;49.11
57572;BME280;44459;43.522;24.470;2023-04-24T12:29:55;99656.81;;;22.35;47.84
57572;BME280;44459;43.522;24.470;2023-04-24T12:32:21;99655.84;;;22.36;46.01
57572;BME280;44459;43.522;24.470;2023-04-24T12:34:47;99651.03;;;21.89;49.74
57572;BME280;44459;43.522;24.470;2023-04-24T12:37:12;99650.38;;;22.03;49.60
57572;BME280;44459;43.522;24.470;2023-04-24T12:39:38;99641.72;;;21.78;53.92
57572;BME280;44459;43.522;24.470;2023-04-24T12:42:03;99639.22;;;21.56;52.05
57572;BME280;44459;43.522;24.470;2023-04-24T12:44:33;99637.44;;;21.38;52.57
57572;BME280;44459;43.522;24.470;2023-04-24T12:47:00;99631.25;;;21.17;53.54
57572;BME280;44459;43.522;24.470;2023-04-24T12:49:29;99628.69;;;21.33;53.35
57572;BME280;44459;43.522;24.470;2023-04-24T12:51:55;99615.63;;;21.44;52.36
57572;BME280;44459;43.522;24.470;2023-04-24T12:54:21;99602.47;;;21.56;52.13
57572;BME280;44459;43.522;24.470;2023-04-24T12:56:47;99612.66;;;21.50;53.54
57572;BME280;44459;43.522;24.470;2023-04-24T12:59:12;99600.81;;;21.54;53.91